Time;durP1;ratioP1;P1;durP2;ratioP2;P2;SDS_P1;SDS_P2;PMS_P1;PMS_P2;Temp;Humidity;BMP_temperature;BMP_pressure;BME280_temperature;BME280_humidity;BME280_pressure;Samples;Min_cycle;Max_cycle;Signal;HPM_P1;HPM_P2
2022/09/15 04:59:17;;;;;;;40.88;5.72;;;;;;;;;;5063873;28;20388;-60
2022/09/15 05:01:44;;;;;;;9.10;1.35;;;;;;;;;;5046662;28;20485;-60
2022/09/15 05:04:11;;;;;;;19.65;5.07;;;;;;;;;;5045858;28;20037;-58
2022/09/15 05:06:37;;;;;;;21.60;5.32;;;;;;;;;;5044876;28;20052;-60
2022/09/15 05:09:05;;;;;;;22.63;6.28;;;;;;;;;;5045991;28;20113;-59
2022/09/15 05:11:36;;;;;;;26.67;4.20;;;;;;;;;;5046017;28;20041;-59
2022/09/15 05:14:02;;;;;;;23.45;6.40;;;;;;;;;;5046385;28;20034;-59
2022/09/15 05:16:29;;;;;;;15.25;4.20;;;;;;;;;;5046268;28;20573;-61
2022/09/15 05:18:57;;;;;;;16.55;4.13;;;;;;;;;;5045767;28;20497;-61
2022/09/15 05:21:24;;;;;;;19.48;5.45;;;;;;;;;;5045445;28;20044;-61
2022/09/15 05:23:51;;;;;;;12.63;3.22;;;;;;;;;;5045677;28;20124;-62
2022/09/15 05:26:20;;;;;;;33.03;5.10;;;;;;;;;;5045690;28;20073;-60
2022/09/15 05:28:46;;;;;;;12.05;2.47;;;;;;;;;;5046553;28;20049;-64
2022/09/15 05:31:33;;;;;;;16.17;3.40;;;;;;;;;;5045379;28;20425;-64
2022/09/15 05:34:01;;;;;;;21.75;2.47;;;;;;;;;;5045569;28;20061;-64
2022/09/15 05:36:28;;;;;;;11.35;2.25;;;;;;;;;;5045480;28;20037;-64
2022/09/15 05:38:55;;;;;;;16.60;4.03;;;;;;;;;;5045158;28;20064;-64
2022/09/15 05:41:22;;;;;;;21.90;4.00;;;;;;;;;;5046033;28;20432;-64
2022/09/15 05:43:49;;;;;;;19.38;4.43;;;;;;;;;;5046194;28;20045;-63
2022/09/15 05:46:17;;;;;;;42.58;6.03;;;;;;;;;;5044898;28;20041;-64
2022/09/15 05:48:44;;;;;;;18.10;3.70;;;;;;;;;;5045844;28;20045;-64
2022/09/15 05:51:10;;;;;;;10.60;2.55;;;;;;;;;;5045389;28;20045;-64
2022/09/15 05:53:37;;;;;;;24.40;8.32;;;;;;;;;;5045148;28;20508;-63
2022/09/15 05:56:05;;;;;;;35.80;6.40;;;;;;;;;;5045264;28;20033;-64
2022/09/15 05:58:31;;;;;;;16.67;3.78;;;;;;;;;;5045295;28;20053;-63
2022/09/15 06:01:06;;;;;;;26.05;5.85;;;;;;;;;;5044864;28;20503;-63
2022/09/15 06:03:34;;;;;;;18.75;2.88;;;;;;;;;;5042542;28;20040;-63
2022/09/15 06:06:01;;;;;;;18.83;2.53;;;;;;;;;;5044830;28;20456;-63
2022/09/15 06:08:38;;;;;;;39.75;5.40;;;;;;;;;;5043429;28;20041;-63
2022/09/15 06:11:14;;;;;;;58.53;6.35;;;;;;;;;;5029199;28;20075;-63
2022/09/15 06:13:41;;;;;;;32.25;4.10;;;;;;;;;;5032576;28;20498;-63
2022/09/15 06:16:09;;;;;;;25.83;4.28;;;;;;;;;;5031639;28;20053;-63
2022/09/15 06:18:36;;;;;;;24.30;5.45;;;;;;;;;;5031468;28;20132;-63
2022/09/15 06:21:13;;;;;;;38.35;5.55;;;;;;;;;;5031229;28;20033;-63
2022/09/15 06:23:40;;;;;;;26.15;2.75;;;;;;;;;;5031439;28;20116;-63
2022/09/15 06:26:10;;;;;;;29.27;3.60;;;;;;;;;;5031369;28;20051;-63
2022/09/15 06:28:38;;;;;;;27.60;3.60;;;;;;;;;;5032107;28;20049;-64
2022/09/15 06:31:08;;;;;;;20.98;3.92;;;;;;;;;;5030940;28;20041;-63
2022/09/15 06:33:35;;;;;;;15.30;2.83;;;;;;;;;;5031102;28;20128;-63
2022/09/15 06:36:01;;;;;;;28.63;3.22;;;;;;;;;;5031206;28;20033;-64
2022/09/15 06:38:28;;;;;;;20.77;3.13;;;;;;;;;;5030245;28;20048;-63
2022/09/15 06:40:56;;;;;;;22.67;2.80;;;;;;;;;;5031390;28;20033;-64
2022/09/15 06:43:22;;;;;;;24.20;3.40;;;;;;;;;;5031025;28;20061;-63
2022/09/15 06:45:49;;;;;;;20.20;2.80;;;;;;;;;;5030757;28;20490;-63
2022/09/15 06:48:15;;;;;;;20.13;2.65;;;;;;;;;;5030490;28;20053;-64
2022/09/15 06:50:54;;;;;;;21.95;2.65;;;;;;;;;;5030770;28;20402;-63
2022/09/15 06:53:20;;;;;;;28.08;3.47;;;;;;;;;;5030632;28;20429;-64
2022/09/15 06:55:47;;;;;;;43.30;4.82;;;;;;;;;;5030635;28;20050;-63
2022/09/15 06:58:14;;;;;;;25.15;3.20;;;;;;;;;;5029597;28;20050;-63
2022/09/15 07:00:41;;;;;;;25.48;3.70;;;;;;;;;;5029977;28;20060;-63
2022/09/15 07:03:07;;;;;;;32.00;5.78;;;;;;;;;;5029814;28;20042;-63
2022/09/15 07:05:34;;;;;;;20.48;2.63;;;;;;;;;;5029955;28;20095;-63
2022/09/15 07:08:00;;;;;;;17.92;2.80;;;;;;;;;;5026282;28;20666;-65
2022/09/15 07:10:27;;;;;;;31.75;4.43;;;;;;;;;;5030370;28;20041;-66
2022/09/15 07:12:54;;;;;;;18.45;2.25;;;;;;;;;;5030398;28;20041;-63
2022/09/15 07:15:22;;;;;;;11.57;2.40;;;;;;;;;;5030541;28;20041;-64
2022/09/15 07:17:48;;;;;;;23.30;3.03;;;;;;;;;;5030153;28;20045;-63
2022/09/15 07:20:15;;;;;;;31.17;3.03;;;;;;;;;;5028992;28;20045;-65
2022/09/15 07:22:43;;;;;;;16.88;2.88;;;;;;;;;;5030181;28;20571;-63
2022/09/15 07:25:09;;;;;;;25.60;5.45;;;;;;;;;;5030028;28;20060;-63
2022/09/15 07:27:36;;;;;;;13.57;2.00;;;;;;;;;;5030346;28;20029;-63
2022/09/15 07:30:02;;;;;;;17.75;2.42;;;;;;;;;;5029996;28;20034;-63
2022/09/15 07:32:29;;;;;;;25.75;3.17;;;;;;;;;;5029879;28;20041;-63
2022/09/15 07:34:56;;;;;;;28.25;2.70;;;;;;;;;;5030743;28;20532;-62
2022/09/15 07:37:24;;;;;;;17.77;2.60;;;;;;;;;;5029594;28;20048;-64
2022/09/15 07:39:50;;;;;;;27.33;3.92;;;;;;;;;;5024547;28;20041;-65
2022/09/15 07:42:17;;;;;;;27.70;2.80;;;;;;;;;;5029894;28;20038;-65
2022/09/15 07:44:43;;;;;;;14.25;2.95;;;;;;;;;;5030142;28;20046;-63
2022/09/15 07:47:10;;;;;;;26.13;3.38;;;;;;;;;;5029868;28;20030;-65
2022/09/15 07:49:36;;;;;;;45.05;4.75;;;;;;;;;;5030160;28;20041;-65
2022/09/15 07:52:02;;;;;;;21.40;2.92;;;;;;;;;;5029427;28;20116;-65
2022/09/15 07:54:29;;;;;;;15.80;1.58;;;;;;;;;;5030237;28;20044;-64
2022/09/15 07:56:55;;;;;;;34.70;3.53;;;;;;;;;;5029185;28;20087;-64
2022/09/15 07:59:22;;;;;;;26.10;2.58;;;;;;;;;;5029982;28;20456;-64
2022/09/15 08:01:49;;;;;;;15.43;1.65;;;;;;;;;;5030096;28;20041;-65
2022/09/15 08:04:16;;;;;;;34.60;3.42;;;;;;;;;;5029107;28;20095;-65
2022/09/15 08:06:43;;;;;;;13.15;1.40;;;;;;;;;;5023616;28;20049;-65
2022/09/15 08:09:13;;;;;;;15.57;1.60;;;;;;;;;;5029309;28;20053;-64
2022/09/15 08:11:40;;;;;;;36.30;4.10;;;;;;;;;;5029430;28;20453;-64
2022/09/15 08:14:07;;;;;;;22.85;2.35;;;;;;;;;;5029752;28;20053;-64
2022/09/15 08:16:34;;;;;;;13.02;1.45;;;;;;;;;;5029826;28;20532;-64
2022/09/15 08:19:01;;;;;;;33.17;3.28;;;;;;;;;;5029439;28;20063;-64
2022/09/15 08:21:28;;;;;;;21.60;2.08;;;;;;;;;;5029272;28;20049;-64
2022/09/15 08:23:56;;;;;;;18.75;1.95;;;;;;;;;;5028965;28;20557;-64
2022/09/15 08:26:23;;;;;;;56.22;5.53;;;;;;;;;;5028776;28;20497;-64
2022/09/15 08:28:49;;;;;;;41.10;4.15;;;;;;;;;;5029722;28;20056;-65
2022/09/15 08:31:16;;;;;;;23.90;3.55;;;;;;;;;;5029210;28;20405;-64
2022/09/15 08:33:46;;;;;;;33.28;3.45;;;;;;;;;;5028499;28;20049;-63
2022/09/15 08:36:13;;;;;;;24.02;2.67;;;;;;;;;;5028943;28;20041;-64
2022/09/15 08:38:40;;;;;;;20.80;2.25;;;;;;;;;;5028636;28;20060;-64
2022/09/15 08:41:18;;;;;;;43.92;4.20;;;;;;;;;;5028982;28;20045;-64
2022/09/15 08:43:48;;;;;;;18.85;1.98;;;;;;;;;;5025192;28;20132;-64
2022/09/15 08:46:18;;;;;;;42.28;3.97;;;;;;;;;;5028401;28;20771;-64
2022/09/15 08:48:48;;;;;;;12.02;1.60;;;;;;;;;;5029032;28;20060;-64
2022/09/15 08:51:20;;;;;;;25.58;5.53;;;;;;;;;;5028782;28;20052;-64
2022/09/15 08:53:49;;;;;;;31.27;3.05;;;;;;;;;;5028686;28;20048;-64
2022/09/15 08:56:16;;;;;;;28.17;2.78;;;;;;;;;;5028794;28;20041;-64
2022/09/15 08:58:44;;;;;;;14.05;1.48;;;;;;;;;;5028750;28;20390;-64
2022/09/15 09:01:46;;;;;;;17.52;1.77;;;;;;;;;;5028463;28;20129;-64
2022/09/15 09:04:31;;;;;;;52.45;5.07;;;;;;;;;;5005701;28;20220;-64
2022/09/15 09:07:04;;;;;;;23.63;2.45;;;;;;;;;;5005941;28;20046;-65
2022/09/15 09:09:40;;;;;;;32.85;3.17;;;;;;;;;;5006685;28;20121;-63
2022/09/15 09:12:16;;;;;;;23.30;2.33;;;;;;;;;;5006161;28;20108;-66
2022/09/15 09:15:10;;;;;;;25.80;2.63;;;;;;;;;;5006164;28;20478;-63
2022/09/15 09:17:56;;;;;;;20.98;3.75;;;;;;;;;;5006593;28;20046;-64
2022/09/15 09:20:32;;;;;;;27.80;2.70;;;;;;;;;;5006300;28;20046;-63
2022/09/15 09:23:01;;;;;;;29.35;3.20;;;;;;;;;;5006575;28;20544;-64
2022/09/15 09:25:28;;;;;;;11.95;1.95;;;;;;;;;;4990168;28;20050;-63
2022/09/15 09:27:56;;;;;;;27.20;3.00;;;;;;;;;;5005967;28;20042;-64
2022/09/15 09:30:24;;;;;;;33.13;3.50;;;;;;;;;;5005851;28;20469;-64
2022/09/15 09:33:09;;;;;;;21.63;2.22;;;;;;;;;;5006545;28;20644;-64
2022/09/15 09:35:38;;;;;;;25.38;2.50;;;;;;;;;;5006043;28;20037;-65
2022/09/15 09:38:07;;;;;;;18.38;2.05;;;;;;;;;;5011788;28;20115;-64
2022/09/15 09:40:36;;;;;;;6.38;1.00;;;;;;;;;;5028951;28;20045;-64
2022/09/15 09:43:02;;;;;;;39.92;3.90;;;;;;;;;;5028158;28;20124;-64
2022/09/15 09:45:29;;;;;;;14.65;1.65;;;;;;;;;;5030965;28;20044;-64
2022/09/15 09:48:00;;;;;;;14.13;1.73;;;;;;;;;;5032398;28;20042;-64
2022/09/15 09:50:30;;;;;;;37.42;4.07;;;;;;;;;;5031788;28;20053;-64
2022/09/15 09:52:57;;;;;;;26.33;3.70;;;;;;;;;;5032335;28;20050;-64
2022/09/15 09:55:25;;;;;;;12.80;2.30;;;;;;;;;;5032081;28;20109;-64
2022/09/15 09:57:53;;;;;;;43.17;4.55;;;;;;;;;;5030005;28;20403;-65
2022/09/15 10:00:33;;;;;;;30.15;3.45;;;;;;;;;;5031883;28;20053;-64
2022/09/15 10:03:08;;;;;;;39.85;3.80;;;;;;;;;;5019082;28;20059;-64
2022/09/15 10:05:35;;;;;;;15.00;1.77;;;;;;;;;;5032111;28;20478;-63
2022/09/15 10:08:01;;;;;;;17.95;2.22;;;;;;;;;;5032147;28;20405;-63
2022/09/15 10:10:31;;;;;;;43.40;4.07;;;;;;;;;;5030970;28;20490;-63
2022/09/15 10:13:00;;;;;;;33.45;3.22;;;;;;;;;;5031782;28;20045;-64
2022/09/15 10:15:28;;;;;;;23.52;2.33;;;;;;;;;;5031673;28;20052;-63
2022/09/15 10:17:55;;;;;;;32.47;3.08;;;;;;;;;;5031988;28;20156;-64
2022/09/15 10:20:27;;;;;;;27.13;2.60;;;;;;;;;;5031596;28;20049;-64
2022/09/15 10:23:04;;;;;;;25.23;2.40;;;;;;;;;;5031966;28;20037;-64
2022/09/15 10:25:32;;;;;;;15.35;1.52;;;;;;;;;;5031361;28;20107;-63
2022/09/15 10:28:24;;;;;;;46.78;4.20;;;;;;;;;;5030990;28;20470;-63
2022/09/15 10:30:57;;;;;;;15.40;1.60;;;;;;;;;;5031586;28;20046;-63
2022/09/15 10:33:25;;;;;;;30.43;2.87;;;;;;;;;;5031264;28;20509;-64
2022/09/15 10:35:53;;;;;;;22.75;2.33;;;;;;;;;;5031364;28;20048;-63
2022/09/15 10:38:31;;;;;;;33.33;3.50;;;;;;;;;;5030560;28;20041;-63
2022/09/15 10:41:06;;;;;;;48.08;5.00;;;;;;;;;;5031557;28;20049;-63
2022/09/15 10:43:33;;;;;;;15.50;1.52;;;;;;;;;;5031725;28;20609;-63
2022/09/15 10:46:07;;;;;;;23.95;2.20;;;;;;;;;;5030754;28;20037;-63
2022/09/15 10:48:47;;;;;;;19.67;1.75;;;;;;;;;;5030836;28;20091;-64
2022/09/15 10:51:26;;;;;;;21.48;1.92;;;;;;;;;;5031225;28;20057;-63
2022/09/15 10:54:03;;;;;;;48.03;4.07;;;;;;;;;;5030568;28;20041;-64
2022/09/15 10:56:35;;;;;;;23.52;3.13;;;;;;;;;;5030672;28;20091;-63
2022/09/15 10:59:30;;;;;;;20.02;2.05;;;;;;;;;;5031326;28;20527;-63
2022/09/15 11:02:17;;;;;;;47.40;4.07;;;;;;;;;;5030562;28;20061;-63
2022/09/15 11:05:00;;;;;;;16.92;1.58;;;;;;;;;;5030876;28;20127;-63
2022/09/15 11:07:31;;;;;;;24.02;2.70;;;;;;;;;;5030452;28;20041;-63
2022/09/15 11:10:14;;;;;;;22.50;2.08;;;;;;;;;;5030639;28;20504;-63
2022/09/15 11:12:56;;;;;;;11.38;1.13;;;;;;;;;;5030851;28;20125;-63
2022/09/15 11:15:38;;;;;;;20.38;1.92;;;;;;;;;;5030685;28;20076;-63
2022/09/15 11:18:13;;;;;;;28.30;2.67;;;;;;;;;;5030376;28;20041;-63
2022/09/15 11:20:40;;;;;;;17.67;1.75;;;;;;;;;;5030559;28;20037;-63
2022/09/15 11:23:16;;;;;;;37.67;3.20;;;;;;;;;;5030324;28;20037;-63
2022/09/15 11:25:45;;;;;;;19.88;1.77;;;;;;;;;;5030073;28;20136;-63
2022/09/15 11:28:18;;;;;;;46.58;4.82;;;;;;;;;;5029994;28;20088;-63
2022/09/15 11:31:14;;;;;;;17.73;1.70;;;;;;;;;;5030393;28;20044;-63
2022/09/15 11:33:51;;;;;;;29.83;2.53;;;;;;;;;;5029973;28;20058;-63
2022/09/15 11:36:21;;;;;;;28.77;2.63;;;;;;;;;;5030058;28;20456;-63
2022/09/15 11:38:48;;;;;;;36.45;3.10;;;;;;;;;;5029537;28;20393;-63
2022/09/15 11:41:17;;;;;;;21.38;1.98;;;;;;;;;;5030345;28;20048;-64
2022/09/15 11:43:44;;;;;;;21.38;1.90;;;;;;;;;;5030784;28;20110;-63
2022/09/15 11:46:17;;;;;;;44.50;3.83;;;;;;;;;;5028136;28;20041;-63
2022/09/15 11:48:45;;;;;;;13.57;1.30;;;;;;;;;;5029869;28;20493;-63
2022/09/15 11:51:14;;;;;;;23.50;2.10;;;;;;;;;;5029608;28;20037;-64
2022/09/15 11:53:50;;;;;;;20.95;1.95;;;;;;;;;;5029035;28;20370;-64
2022/09/15 11:56:20;;;;;;;27.92;2.75;;;;;;;;;;5029223;28;20056;-64
2022/09/15 11:59:19;;;;;;;54.05;5.20;;;;;;;;;;5029476;28;20115;-63
2022/09/15 12:01:51;;;;;;;19.05;2.17;;;;;;;;;;5026820;28;20173;-63
2022/09/15 12:04:21;;;;;;;30.95;2.70;;;;;;;;;;5021677;28;20607;-64
2022/09/15 12:06:47;;;;;;;28.13;2.70;;;;;;;;;;5021125;28;20029;-63
2022/09/15 12:09:18;;;;;;;52.47;5.13;;;;;;;;;;5022238;28;20057;-63
2022/09/15 12:11:49;;;;;;;10.05;1.05;;;;;;;;;;5026217;28;20453;-64
2022/09/15 12:14:21;;;;;;;34.40;3.28;;;;;;;;;;5023248;28;20049;-64
2022/09/15 12:16:48;;;;;;;32.83;2.85;;;;;;;;;;5022646;28;20073;-65
2022/09/15 12:19:18;;;;;;;20.85;2.33;;;;;;;;;;5021872;28;20541;-64
2022/09/15 12:21:50;;;;;;;44.30;3.88;;;;;;;;;;5024839;28;20042;-64
2022/09/15 12:24:25;;;;;;;27.15;2.90;;;;;;;;;;5022717;28;20041;-64
2022/09/15 12:26:52;;;;;;;30.55;2.80;;;;;;;;;;5022655;28;20056;-64
2022/09/15 12:29:21;;;;;;;58.00;5.00;;;;;;;;;;5024910;28;20049;-65
2022/09/15 12:31:47;;;;;;;21.40;1.95;;;;;;;;;;5025256;28;20136;-64
2022/09/15 12:34:34;;;;;;;32.92;2.92;;;;;;;;;;5024531;28;20057;-63
2022/09/15 12:37:20;;;;;;;31.40;2.88;;;;;;;;;;5024030;28;20061;-63
2022/09/15 12:39:47;;;;;;;38.85;3.45;;;;;;;;;;5028583;28;20060;-63
2022/09/15 12:42:19;;;;;;;29.50;2.65;;;;;;;;;;5028277;28;20046;-63
2022/09/15 12:44:51;;;;;;;17.95;1.63;;;;;;;;;;5028680;28;20049;-63
2022/09/15 12:47:20;;;;;;;48.83;4.15;;;;;;;;;;5028614;28;20048;-63
2022/09/15 12:49:48;;;;;;;39.88;3.53;;;;;;;;;;5029051;28;20486;-63
2022/09/15 12:52:15;;;;;;;28.83;3.10;;;;;;;;;;5028513;28;20045;-64
2022/09/15 12:54:44;;;;;;;18.83;1.88;;;;;;;;;;5028778;28;20083;-63
2022/09/15 12:57:40;;;;;;;25.20;2.35;;;;;;;;;;5028606;28;20045;-63
2022/09/15 13:00:22;;;;;;;17.92;1.83;;;;;;;;;;5028012;28;20103;-63
2022/09/15 13:02:49;;;;;;;32.00;3.08;;;;;;;;;;5028703;28;20053;-63
2022/09/15 13:05:34;;;;;;;29.35;2.95;;;;;;;;;;5028663;28;20088;-63
2022/09/15 13:08:01;;;;;;;27.88;2.72;;;;;;;;;;5027457;28;20417;-63
2022/09/15 13:10:33;;;;;;;19.40;2.03;;;;;;;;;;5028678;28;20049;-64
2022/09/15 13:13:12;;;;;;;19.08;2.40;;;;;;;;;;5028773;28;20038;-63
2022/09/15 13:15:41;;;;;;;36.67;3.30;;;;;;;;;;5028822;28;20060;-63
2022/09/15 13:18:08;;;;;;;24.40;2.20;;;;;;;;;;5028533;28;20044;-63
2022/09/15 13:20:37;;;;;;;15.40;1.80;;;;;;;;;;5031241;28;20041;-63
2022/09/15 13:23:05;;;;;;;31.10;2.80;;;;;;;;;;5033030;28;20045;-63
2022/09/15 13:25:32;;;;;;;16.85;1.45;;;;;;;;;;5032656;28;20454;-63
2022/09/15 13:28:00;;;;;;;21.80;1.90;;;;;;;;;;5032365;28;20033;-63
2022/09/15 13:30:44;;;;;;;22.15;1.95;;;;;;;;;;5032189;28;20132;-63
2022/09/15 13:33:11;;;;;;;20.60;2.25;;;;;;;;;;5032318;28;20037;-63
2022/09/15 13:35:50;;;;;;;47.17;4.55;;;;;;;;;;5032235;28;20525;-63
2022/09/15 13:38:19;;;;;;;38.47;3.53;;;;;;;;;;5032170;28;20413;-63
2022/09/15 13:41:13;;;;;;;36.50;3.72;;;;;;;;;;5032936;28;20045;-63
2022/09/15 13:44:00;;;;;;;40.58;3.65;;;;;;;;;;5027828;28;20057;-63
2022/09/15 13:46:27;;;;;;;21.83;1.85;;;;;;;;;;5032516;28;20034;-63
2022/09/15 13:48:54;;;;;;;19.88;1.95;;;;;;;;;;5030686;28;20042;-63
2022/09/15 13:51:27;;;;;;;45.55;3.70;;;;;;;;;;5031952;28;20448;-63
2022/09/15 13:54:02;;;;;;;25.08;2.17;;;;;;;;;;5031696;28;20037;-63
2022/09/15 13:56:30;;;;;;;55.67;4.63;;;;;;;;;;5031877;28;20481;-63
2022/09/15 13:59:01;;;;;;;32.30;2.65;;;;;;;;;;5032591;28;20064;-63
2022/09/15 14:01:37;;;;;;;27.15;2.15;;;;;;;;;;5032104;28;20045;-63
2022/09/15 14:04:09;;;;;;;33.38;3.33;;;;;;;;;;5031621;28;20116;-63
2022/09/15 14:06:36;;;;;;;16.95;2.33;;;;;;;;;;5031873;28;20041;-63
2022/09/15 14:09:17;;;;;;;39.97;3.25;;;;;;;;;;5031512;28;20033;-63
2022/09/15 14:11:46;;;;;;;33.70;2.78;;;;;;;;;;5031775;28;20082;-63
2022/09/15 14:14:28;;;;;;;33.25;2.63;;;;;;;;;;5031944;28;20121;-65
2022/09/15 14:16:55;;;;;;;50.30;3.95;;;;;;;;;;5030001;28;20053;-64
2022/09/15 14:19:32;;;;;;;33.10;2.63;;;;;;;;;;5031451;28;20048;-63
2022/09/15 14:22:00;;;;;;;50.75;3.97;;;;;;;;;;5029878;28;20042;-63
2022/09/15 14:24:30;;;;;;;15.88;1.40;;;;;;;;;;5031218;28;20045;-64
2022/09/15 14:27:06;;;;;;;34.92;3.22;;;;;;;;;;5029832;28;20045;-64
2022/09/15 14:29:37;;;;;;;25.17;2.08;;;;;;;;;;5031136;28;20041;-63
2022/09/15 14:32:04;;;;;;;34.72;2.90;;;;;;;;;;5031034;28;20055;-63
2022/09/15 14:34:33;;;;;;;49.80;4.05;;;;;;;;;;5030650;28;20084;-63
2022/09/15 14:37:03;;;;;;;35.35;4.25;;;;;;;;;;5031100;28;20091;-63
2022/09/15 14:39:30;;;;;;;35.42;2.90;;;;;;;;;;5030722;28;20472;-63
2022/09/15 14:41:56;;;;;;;39.15;3.10;;;;;;;;;;5031029;28;20029;-63
2022/09/15 14:44:38;;;;;;;38.90;3.33;;;;;;;;;;5031264;28;20049;-63
2022/09/15 14:47:25;;;;;;;83.07;6.68;;;;;;;;;;5028455;28;20179;-63
2022/09/15 14:50:10;;;;;;;25.17;2.17;;;;;;;;;;5031131;28;20494;-63
2022/09/15 14:53:01;;;;;;;44.67;3.58;;;;;;;;;;5030235;28;20042;-62
2022/09/15 14:55:46;;;;;;;47.35;3.80;;;;;;;;;;5027859;28;20053;-63
2022/09/15 14:58:17;;;;;;;32.75;3.08;;;;;;;;;;5030479;28;20115;-63
2022/09/15 15:00:52;;;;;;;65.35;5.07;;;;;;;;;;5029689;28;20038;-63
2022/09/15 15:03:26;;;;;;;36.22;2.83;;;;;;;;;;5031042;28;20064;-63
2022/09/15 15:05:55;;;;;;;50.05;3.85;;;;;;;;;;5030083;28;20068;-62
2022/09/15 15:08:34;;;;;;;43.65;4.03;;;;;;;;;;5030388;28;20060;-61
2022/09/15 15:11:03;;;;;;;27.50;2.17;;;;;;;;;;5029967;28;20056;-61
2022/09/15 15:13:29;;;;;;;26.13;2.15;;;;;;;;;;5026211;28;20642;-61
2022/09/15 15:15:56;;;;;;;25.60;2.67;;;;;;;;;;5030316;28;20048;-62
2022/09/15 15:18:26;;;;;;;27.70;2.20;;;;;;;;;;5030280;28;20049;-62
2022/09/15 15:20:57;;;;;;;27.30;2.20;;;;;;;;;;5030381;28;20048;-61
2022/09/15 15:23:24;;;;;;;42.28;3.33;;;;;;;;;;5030282;28;20076;-62
2022/09/15 15:25:51;;;;;;;46.78;3.75;;;;;;;;;;5030761;28;20037;-61
2022/09/15 15:28:37;;;;;;;29.55;2.47;;;;;;;;;;5030138;28;20033;-61
2022/09/15 15:31:11;;;;;;;26.33;2.15;;;;;;;;;;5029434;28;20129;-62
2022/09/15 15:33:44;;;;;;;24.90;2.42;;;;;;;;;;5030312;28;20045;-62
2022/09/15 15:36:10;;;;;;;24.55;2.30;;;;;;;;;;5025299;28;20140;-62
2022/09/15 15:38:41;;;;;;;45.17;4.95;;;;;;;;;;5029337;28;20039;-62
2022/09/15 15:41:23;;;;;;;19.13;1.63;;;;;;;;;;5026750;28;20041;-62
2022/09/15 15:43:54;;;;;;;60.17;5.03;;;;;;;;;;5028962;28;20049;-62
2022/09/15 15:46:39;;;;;;;32.05;2.88;;;;;;;;;;5029857;28;20520;-63
2022/09/15 15:49:09;;;;;;;50.67;4.72;;;;;;;;;;5029549;28;20041;-62
2022/09/15 15:51:35;;;;;;;20.15;1.70;;;;;;;;;;5029699;28;20049;-62
2022/09/15 15:54:02;;;;;;;28.10;2.28;;;;;;;;;;5029475;28;20034;-62
2022/09/15 15:56:28;;;;;;;69.93;5.20;;;;;;;;;;5029511;28;20038;-62
2022/09/15 15:58:58;;;;;;;46.95;3.53;;;;;;;;;;5028357;28;20077;-62
2022/09/15 16:01:25;;;;;;;30.13;2.30;;;;;;;;;;5029290;28;20053;-62
2022/09/15 16:03:51;;;;;;;46.55;3.58;;;;;;;;;;5029768;28;20099;-62
2022/09/15 16:06:18;;;;;;;21.10;2.25;;;;;;;;;;5029484;28;20052;-62
2022/09/15 16:08:45;;;;;;;27.70;2.17;;;;;;;;;;5029584;28;20044;-62
2022/09/15 16:11:13;;;;;;;30.95;2.63;;;;;;;;;;5030011;28;20049;-62
2022/09/15 16:13:40;;;;;;;18.88;1.63;;;;;;;;;;5029153;28;20069;-62
2022/09/15 16:16:26;;;;;;;42.67;3.50;;;;;;;;;;5029383;28;20033;-62
2022/09/15 16:18:52;;;;;;;30.52;2.45;;;;;;;;;;5029583;28;20033;-62
2022/09/15 16:21:22;;;;;;;31.75;3.03;;;;;;;;;;5029401;28;20052;-62
2022/09/15 16:23:48;;;;;;;51.80;3.92;;;;;;;;;;5028536;28;20038;-62
2022/09/15 16:26:17;;;;;;;34.88;3.60;;;;;;;;;;5030077;28;20058;-62
2022/09/15 16:28:43;;;;;;;19.08;2.67;;;;;;;;;;5028906;28;20038;-62
2022/09/15 16:31:14;;;;;;;42.40;3.20;;;;;;;;;;5028797;28;20453;-62
2022/09/15 16:33:41;;;;;;;16.85;1.40;;;;;;;;;;5029368;28;20033;-62
2022/09/15 16:36:11;;;;;;;39.75;3.63;;;;;;;;;;5029032;28;20465;-62
2022/09/15 16:38:38;;;;;;;40.95;3.20;;;;;;;;;;5028699;28;20044;-62
2022/09/15 16:41:11;;;;;;;25.75;2.63;;;;;;;;;;5029737;28;20107;-62
2022/09/15 16:43:37;;;;;;;21.10;1.97;;;;;;;;;;5028700;28;20045;-62
2022/09/15 16:46:04;;;;;;;32.42;2.92;;;;;;;;;;5029130;28;20033;-62
2022/09/15 16:48:31;;;;;;;23.10;1.83;;;;;;;;;;5028733;28;20497;-62
2022/09/15 16:50:57;;;;;;;34.17;3.03;;;;;;;;;;5028639;28;20496;-62
2022/09/15 16:53:46;;;;;;;30.90;2.45;;;;;;;;;;5028226;28;20060;-62
2022/09/15 16:56:13;;;;;;;51.92;4.38;;;;;;;;;;5027361;28;20048;-62
2022/09/15 16:58:40;;;;;;;23.25;1.80;;;;;;;;;;5028546;28;20057;-61
2022/09/15 17:01:13;;;;;;;21.48;1.73;;;;;;;;;;5028863;28;20045;-62
2022/09/15 17:03:42;;;;;;;;;;;;;;;;;;5029215;28;20064;-61
2022/09/15 17:06:11;;;;;;;34.33;2.65;;;;;;;;;;5028660;28;20007;-62
2022/09/15 17:08:38;;;;;;;25.60;2.20;;;;;;;;;;5028646;28;20041;-63
2022/09/15 17:11:04;;;;;;;33.80;2.60;;;;;;;;;;5028911;28;20052;-61
2022/09/15 17:13:32;;;;;;;21.48;1.73;;;;;;;;;;5028704;28;20124;-60
2022/09/15 17:15:59;;;;;;;27.13;2.08;;;;;;;;;;5028768;28;20033;-61
2022/09/15 17:18:26;;;;;;;58.13;4.63;;;;;;;;;;5028332;28;20049;-61
2022/09/15 17:20:53;;;;;;;30.20;2.50;;;;;;;;;;5028797;28;20037;-64
2022/09/15 17:23:24;;;;;;;23.38;1.88;;;;;;;;;;5028433;28;20120;-61
2022/09/15 17:25:52;;;;;;;36.30;2.75;;;;;;;;;;5028728;28;20034;-60
2022/09/15 17:28:21;;;;;;;26.23;2.17;;;;;;;;;;5028356;28;20049;-61
2022/09/15 17:30:48;;;;;;;18.02;1.63;;;;;;;;;;5028047;28;20042;-61
2022/09/15 17:33:15;;;;;;;55.35;4.63;;;;;;;;;;5028490;28;20073;-59
2022/09/15 17:35:42;;;;;;;20.92;2.13;;;;;;;;;;5028889;28;20046;-60
2022/09/15 17:38:09;;;;;;;24.98;2.05;;;;;;;;;;5028719;28;20038;-59
2022/09/15 17:40:35;;;;;;;46.97;3.63;;;;;;;;;;5027806;28;20037;-59
2022/09/15 17:43:02;;;;;;;25.10;2.03;;;;;;;;;;5027429;28;20045;-57
2022/09/15 17:45:32;;;;;;;25.38;2.05;;;;;;;;;;5027332;28;20049;-58
2022/09/15 17:47:59;;;;;;;46.47;3.55;;;;;;;;;;5026856;28;20057;-60
2022/09/15 17:50:27;;;;;;;44.05;3.65;;;;;;;;;;5027587;28;20041;-59
2022/09/15 17:52:54;;;;;;;37.88;2.88;;;;;;;;;;5027815;28;20044;-59
2022/09/15 17:55:22;;;;;;;49.58;3.72;;;;;;;;;;5026707;28;20034;-61
2022/09/15 17:57:48;;;;;;;37.75;3.00;;;;;;;;;;5026923;28;20057;-60
2022/09/15 18:00:16;;;;;;;38.00;2.88;;;;;;;;;;5027201;28;20607;-59
2022/09/15 18:02:46;;;;;;;53.35;4.22;;;;;;;;;;5027129;28;20029;-61
2022/09/15 18:05:23;;;;;;;27.92;2.60;;;;;;;;;;5028496;28;20064;-59
2022/09/15 18:07:52;;;;;;;50.17;3.95;;;;;;;;;;5029882;28;20505;-59
2022/09/15 18:10:18;;;;;;;28.17;2.50;;;;;;;;;;5030340;28;20068;-59
2022/09/15 18:12:45;;;;;;;26.17;2.08;;;;;;;;;;5031275;28;20057;-60
2022/09/15 18:15:20;;;;;;;48.33;4.40;;;;;;;;;;5029700;28;20064;-61
2022/09/15 18:17:48;;;;;;;23.52;2.08;;;;;;;;;;5031463;28;20393;-60
2022/09/15 18:20:16;;;;;;;33.65;2.70;;;;;;;;;;5031480;28;20034;-60
2022/09/15 18:22:43;;;;;;;50.20;3.90;;;;;;;;;;5030983;28;20057;-60
2022/09/15 18:25:18;;;;;;;23.45;1.95;;;;;;;;;;5030980;28;20711;-60
2022/09/15 18:27:45;;;;;;;33.67;3.00;;;;;;;;;;5029578;28;20041;-59
2022/09/15 18:30:12;;;;;;;32.67;3.13;;;;;;;;;;5030855;28;20056;-59
2022/09/15 18:32:38;;;;;;;24.05;2.20;;;;;;;;;;5030852;28;20465;-59
2022/09/15 18:35:05;;;;;;;28.15;2.30;;;;;;;;;;5031769;28;20037;-59
2022/09/15 18:37:32;;;;;;;26.70;2.15;;;;;;;;;;5030776;28;20052;-59
2022/09/15 18:39:58;;;;;;;24.27;2.38;;;;;;;;;;5031033;28;20525;-62
2022/09/15 18:42:25;;;;;;;27.17;2.15;;;;;;;;;;5031028;28;20045;-62
2022/09/15 18:44:57;;;;;;;32.30;3.55;;;;;;;;;;5031686;28;20038;-62
2022/09/15 18:47:23;;;;;;;34.42;3.60;;;;;;;;;;5031389;28;20508;-62
2022/09/15 18:49:50;;;;;;;27.08;3.03;;;;;;;;;;5031558;28;20049;-62
2022/09/15 18:52:16;;;;;;;69.35;5.38;;;;;;;;;;5030315;28;20049;-62
2022/09/15 18:54:43;;;;;;;20.20;2.72;;;;;;;;;;5031351;28;20592;-62
2022/09/15 18:57:09;;;;;;;15.60;1.40;;;;;;;;;;5030869;28;20053;-62
2022/09/15 18:59:36;;;;;;;47.72;3.58;;;;;;;;;;5030968;28;20056;-62
2022/09/15 19:02:02;;;;;;;17.65;1.88;;;;;;;;;;5031432;28;20069;-61
2022/09/15 19:04:29;;;;;;;12.88;1.67;;;;;;;;;;5030346;28;20059;-61
2022/09/15 19:07:00;;;;;;;41.35;3.15;;;;;;;;;;5029428;28;20504;-61
2022/09/15 19:09:27;;;;;;;25.30;2.28;;;;;;;;;;5027479;28;20036;-61
2022/09/15 19:11:53;;;;;;;21.08;1.70;;;;;;;;;;5030343;28;20056;-62
2022/09/15 19:14:20;;;;;;;37.88;4.15;;;;;;;;;;5030800;28;20037;-62
2022/09/15 19:16:47;;;;;;;21.67;1.75;;;;;;;;;;5031130;28;20047;-61
2022/09/15 19:19:24;;;;;;;48.67;3.72;;;;;;;;;;5029859;28;20037;-61
2022/09/15 19:21:50;;;;;;;27.95;2.22;;;;;;;;;;5029971;28;20437;-61
2022/09/15 19:24:17;;;;;;;23.73;2.25;;;;;;;;;;5030528;28;20092;-61
2022/09/15 19:26:45;;;;;;;51.08;3.95;;;;;;;;;;5030537;28;20069;-61
2022/09/15 19:29:12;;;;;;;12.00;1.20;;;;;;;;;;5031200;28;20092;-61
2022/09/15 19:31:39;;;;;;;19.08;2.17;;;;;;;;;;5030114;28;20036;-61
2022/09/15 19:34:07;;;;;;;42.05;3.38;;;;;;;;;;5030340;28;20397;-62
2022/09/15 19:36:34;;;;;;;14.00;1.17;;;;;;;;;;5030053;28;20070;-61
2022/09/15 19:39:02;;;;;;;16.55;1.40;;;;;;;;;;5030196;28;20041;-61
2022/09/15 19:41:29;;;;;;;49.83;3.88;;;;;;;;;;5030077;28;20049;-61
2022/09/15 19:43:56;;;;;;;25.55;2.03;;;;;;;;;;5030597;28;20038;-61
2022/09/15 19:46:23;;;;;;;21.92;1.75;;;;;;;;;;5029979;28;20045;-61
2022/09/15 19:48:50;;;;;;;35.30;2.85;;;;;;;;;;5029719;28;20121;-61